Time;durP1;ratioP1;P1;durP2;ratioP2;P2;SDS_P1;SDS_P2;PMS_P1;PMS_P2;Temp;Humidity;BMP_temperature;BMP_pressure;BME280_temperature;BME280_humidity;BME280_pressure;Samples;Min_cycle;Max_cycle;Signal;HPM_P1;HPM_P2
2022/03/30 18:52:11;;;;;;;6.88;4.10;;;13.20;96.70;;;;;;5144801;27;20134;-78
2022/03/30 18:54:42;;;;;;;5.93;3.67;;;13.20;96.70;;;;;;5127080;27;20071;-81
2022/03/30 18:57:10;;;;;;;9.05;4.43;;;13.20;96.70;;;;;;5128090;27;20106;-81
2022/03/30 18:59:39;;;;;;;7.65;4.88;;;13.20;96.70;;;;;;5123113;28;20089;-85
2022/03/30 19:02:08;;;;;;;7.07;4.85;;;13.40;96.70;;;;;;5122549;27;20121;-84
2022/03/30 19:04:36;;;;;;;7.13;5.60;;;13.40;96.70;;;;;;5127638;27;20047;-81
2022/03/30 19:07:05;;;;;;;6.78;5.38;;;13.50;96.70;;;;;;5127141;27;20035;-83
2022/03/30 19:09:40;;;;;;;7.93;5.93;;;13.50;96.70;;;;;;5129028;27;20042;-83
2022/03/30 19:12:08;;;;;;;10.10;6.07;;;13.50;96.70;;;;;;5111697;27;20054;-81
2022/03/30 19:14:37;;;;;;;6.80;5.45;;;13.60;96.70;;;;;;5113619;27;20133;-82
2022/03/30 19:17:06;;;;;;;8.45;6.82;;;13.60;96.70;;;;;;5143138;27;20039;-80
2022/03/30 19:19:34;;;;;;;7.15;6.45;;;13.60;96.70;;;;;;5126064;27;20043;-82
2022/03/30 19:22:04;;;;;;;7.72;5.93;;;13.60;96.70;;;;;;5114853;27;20050;-82
2022/03/30 19:24:32;;;;;;;6.40;4.47;;;13.70;96.70;;;;;;5122451;27;20042;-81
2022/03/30 19:27:01;;;;;;;7.63;6.82;;;13.60;96.70;;;;;;5144206;27;20046;-81
2022/03/30 19:29:29;;;;;;;8.85;7.07;;;13.60;96.70;;;;;;5124061;27;20057;-80
2022/03/30 19:31:59;;;;;;;5.22;4.70;;;13.60;96.70;;;;;;5111039;27;20047;-80
2022/03/30 19:34:29;;;;;;;6.15;4.50;;;13.60;96.70;;;;;;5103459;27;20074;-80
2022/03/30 19:36:59;;;;;;;5.63;5.13;;;13.60;96.70;;;;;;5122992;27;20115;-79
2022/03/30 19:39:27;;;;;;;6.78;6.20;;;13.60;96.70;;;;;;5115445;27;20286;-79
2022/03/30 19:41:55;;;;;;;7.47;4.88;;;13.70;96.70;;;;;;5142048;27;20039;-86
2022/03/30 19:44:28;;;;;;;5.18;4.45;;;13.60;96.70;;;;;;5146765;27;20050;-85
2022/03/30 19:46:56;;;;;;;6.78;5.03;;;13.60;96.70;;;;;;5126015;27;20406;-80
2022/03/30 19:49:24;;;;;;;7.35;4.57;;;13.60;96.70;;;;;;5125685;27;20092;-81
2022/03/30 19:51:52;;;;;;;7.13;4.80;;;13.60;96.70;;;;;;5144106;27;20090;-83
2022/03/30 19:54:20;;;;;;;5.95;3.80;;;13.60;96.70;;;;;;5122811;27;20053;-77
2022/03/30 19:56:48;;;;;;;6.15;4.22;;;13.60;96.70;;;;;;5121416;27;20159;-84
2022/03/30 19:59:17;;;;;;;5.70;3.15;;;13.60;96.70;;;;;;5120290;27;20519;-80
2022/03/30 20:01:46;;;;;;;6.10;2.97;;;13.50;96.70;;;;;;5118902;27;20047;-80
2022/03/30 20:04:14;;;;;;;4.53;3.33;;;13.50;96.70;;;;;;5107070;27;20438;-78
2022/03/30 20:06:46;;;;;;;4.97;3.30;;;13.50;96.70;;;;;;5121679;27;20078;-78
2022/03/30 20:09:17;;;;;;;6.78;3.90;;;13.50;96.70;;;;;;5122131;27;20043;-78
2022/03/30 20:11:45;;;;;;;5.32;3.67;;;13.50;96.70;;;;;;5107696;27;20539;-77
2022/03/30 20:14:13;;;;;;;6.13;4.03;;;13.50;96.70;;;;;;5104572;27;20607;-78
2022/03/30 20:16:41;;;;;;;4.97;3.58;;;13.50;96.70;;;;;;5093953;27;20557;-77
2022/03/30 20:19:12;;;;;;;5.82;3.88;;;13.50;96.70;;;;;;5105568;27;20150;-78
2022/03/30 20:21:40;;;;;;;6.60;4.45;;;13.50;96.70;;;;;;5108005;27;20043;-78
2022/03/30 20:24:08;;;;;;;6.15;5.05;;;13.50;96.70;;;;;;5104037;27;20050;-78
2022/03/30 20:26:37;;;;;;;5.20;4.25;;;13.50;96.70;;;;;;5101574;27;20135;-81
2022/03/30 20:29:09;;;;;;;7.60;5.05;;;13.50;96.70;;;;;;5128095;27;20080;-79
2022/03/30 20:31:37;;;;;;;8.40;5.63;;;13.50;96.70;;;;;;5125658;27;20114;-81
2022/03/30 20:34:05;;;;;;;7.68;5.50;;;13.50;96.70;;;;;;5111783;27;20074;-80
2022/03/30 20:36:35;;;;;;;6.55;5.32;;;13.40;96.70;;;;;;5111240;27;20061;-80
2022/03/30 20:39:03;;;;;;;7.20;4.70;;;13.40;96.70;;;;;;5110041;27;20507;-80
2022/03/30 20:41:41;;;;;;;6.13;4.72;;;13.40;96.70;;;;;;5103420;27;20051;-79
2022/03/30 20:44:09;;;;;;;6.13;3.80;;;13.40;96.70;;;;;;5094612;27;20488;-80
2022/03/30 20:46:38;;;;;;;5.25;3.92;;;13.30;96.70;;;;;;5111948;27;20039;-79
2022/03/30 20:49:26;;;;;;;7.30;4.03;;;13.30;96.70;;;;;;5121930;27;20523;-80
2022/03/30 20:51:55;;;;;;;6.50;3.83;;;13.30;96.70;;;;;;5111744;27;20051;-80
2022/03/30 20:54:23;;;;;;;6.72;3.80;;;13.30;96.70;;;;;;5122970;27;20035;-79
2022/03/30 20:56:51;;;;;;;8.43;4.90;;;13.30;96.70;;;;;;5110840;27;20129;-80
2022/03/30 20:59:19;;;;;;;9.50;5.60;;;13.30;96.70;;;;;;5126832;27;20122;-79
2022/03/30 21:01:47;;;;;;;5.53;4.00;;;13.20;96.70;;;;;;5111604;27;20397;-80
2022/03/30 21:04:16;;;;;;;5.90;4.28;;;13.20;96.70;;;;;;5126600;27;20571;-80
2022/03/30 21:06:44;;;;;;;6.47;4.32;;;13.20;96.70;;;;;;5129408;27;20572;-80
2022/03/30 21:09:14;;;;;;;6.50;4.32;;;13.20;96.70;;;;;;5111487;27;20501;-80
2022/03/30 21:11:42;;;;;;;5.63;4.20;;;13.20;96.70;;;;;;5110860;27;20664;-80
2022/03/30 21:14:10;;;;;;;5.50;4.07;;;13.20;96.70;;;;;;5125300;27;20046;-80
2022/03/30 21:16:41;;;;;;;5.65;3.67;;;13.20;96.70;;;;;;5107454;28;20048;-80
2022/03/30 21:19:09;;;;;;;3.95;3.40;;;13.20;96.70;;;;;;5091696;27;20047;-86
2022/03/30 21:21:38;;;;;;;4.95;3.38;;;13.10;96.70;;;;;;5107358;28;20036;-80
2022/03/30 21:24:07;;;;;;;4.20;3.67;;;13.10;96.70;;;;;;5094431;27;20055;-80
2022/03/30 21:26:38;;;;;;;4.70;2.85;;;13.20;96.70;;;;;;5102818;27;20043;-80
2022/03/30 21:29:08;;;;;;;4.53;3.33;;;13.20;96.70;;;;;;5111041;27;20699;-80
2022/03/30 21:31:36;;;;;;;5.22;3.35;;;13.20;96.70;;;;;;5111364;27;20051;-81
2022/03/30 21:34:04;;;;;;;4.75;3.70;;;13.20;96.70;;;;;;5110945;28;20075;-80
2022/03/30 21:36:34;;;;;;;4.05;3.10;;;13.20;96.70;;;;;;5109006;27;20047;-80
2022/03/30 21:39:02;;;;;;;4.88;3.20;;;13.20;96.70;;;;;;5127118;27;20047;-79
2022/03/30 21:41:32;;;;;;;5.45;3.47;;;13.20;96.70;;;;;;5128709;27;20051;-80
2022/03/30 21:44:03;;;;;;;4.53;3.85;;;13.20;96.70;;;;;;5110695;27;20058;-80
2022/03/30 21:46:32;;;;;;;5.88;4.00;;;13.20;96.70;;;;;;5110656;27;20051;-80
2022/03/30 21:49:02;;;;;;;4.13;3.58;;;13.20;96.70;;;;;;5123673;27;20051;-80
2022/03/30 21:51:30;;;;;;;3.70;3.10;;;13.20;96.70;;;;;;5103774;28;20503;-80
2022/03/30 21:53:58;;;;;;;3.22;2.92;;;13.20;96.70;;;;;;5090318;28;20055;-80
2022/03/30 21:56:26;;;;;;;3.95;2.85;;;13.20;96.70;;;;;;5082539;28;20048;-80
2022/03/30 21:58:55;;;;;;;4.28;2.60;;;13.20;96.70;;;;;;5106378;28;20041;-81
2022/03/30 22:01:26;;;;;;;3.45;2.28;;;13.20;96.70;;;;;;5103219;28;20039;-79
2022/03/30 22:03:56;;;;;;;3.00;2.13;;;13.20;96.70;;;;;;5106834;28;20170;-80
2022/03/30 22:06:25;;;;;;;2.45;1.80;;;13.20;96.70;;;;;;5120094;27;20130;-80
2022/03/30 22:08:53;;;;;;;2.65;2.45;;;13.20;96.70;;;;;;5106214;27;20044;-80
2022/03/30 22:11:21;;;;;;;2.22;1.98;;;13.20;96.70;;;;;;5123610;27;20050;-81
2022/03/30 22:13:49;;;;;;;2.58;2.30;;;13.20;96.70;;;;;;5106800;27;20047;-81
2022/03/30 22:16:19;;;;;;;2.78;2.17;;;13.20;96.70;;;;;;5106816;28;20039;-81
2022/03/30 22:18:49;;;;;;;2.70;2.25;;;13.20;96.70;;;;;;5100385;28;20071;-81
2022/03/30 22:21:17;;;;;;;4.20;2.22;;;13.20;96.70;;;;;;5106637;28;20043;-80
2022/03/30 22:23:46;;;;;;;3.60;2.25;;;13.20;96.70;;;;;;5086011;28;20075;-80
2022/03/30 22:26:18;;;;;;;4.10;3.65;;;13.20;96.70;;;;;;5079253;28;20044;-81
2022/03/30 22:28:47;;;;;;;3.88;3.47;;;13.20;96.70;;;;;;5106095;28;20081;-81
2022/03/30 22:36:58;;;;;;;4.72;3.10;;;13.30;96.70;;;;;;5118678;27;20052;-80
2022/03/30 22:39:26;;;;;;;3.03;2.72;;;13.30;96.70;;;;;;5106114;28;20048;-80
2022/03/30 22:41:58;;;;;;;3.55;3.25;;;13.30;96.70;;;;;;5105885;28;20036;-80
2022/03/30 22:44:26;;;;;;;3.65;3.30;;;13.20;96.70;;;;;;5102539;28;20061;-80
2022/03/30 22:46:55;;;;;;;4.38;3.22;;;13.20;96.70;;;;;;5106200;28;20099;-80
2022/03/30 22:49:24;;;;;;;3.75;2.40;;;13.20;96.70;;;;;;5105775;28;20048;-80
2022/03/30 22:51:53;;;;;;;4.78;2.65;;;13.20;96.70;;;;;;5105659;28;20056;-80
2022/03/30 22:54:23;;;;;;;2.88;2.58;;;13.20;96.70;;;;;;5107010;28;20040;-80
2022/03/30 22:56:51;;;;;;;3.10;2.63;;;13.10;96.70;;;;;;5107079;28;20046;-80
2022/03/30 22:59:20;;;;;;;4.00;2.47;;;13.20;96.70;;;;;;5106346;28;20489;-80
2022/03/30 23:01:48;;;;;;;2.97;2.45;;;13.20;96.70;;;;;;5107127;28;20489;-79
2022/03/30 23:04:16;;;;;;;3.85;2.72;;;13.20;96.70;;;;;;5097907;28;20051;-80
2022/03/30 23:09:32;;;;;;;4.20;3.80;;;13.10;96.70;;;;;;5104127;28;20047;-80
2022/03/30 23:12:00;;;;;;;4.30;2.72;;;13.10;96.70;;;;;;5105237;28;20789;-80
2022/03/30 23:14:28;;;;;;;3.25;2.15;;;13.00;96.70;;;;;;5088805;28;20200;-80
2022/03/30 23:16:57;;;;;;;3.83;3.47;;;13.00;96.70;;;;;;5103214;28;20049;-81
2022/03/30 23:19:25;;;;;;;2.00;1.80;;;13.00;96.70;;;;;;5100035;28;20044;-81
2022/03/30 23:21:54;;;;;;;3.50;2.28;;;12.90;96.70;;;;;;5085188;28;20040;-81
2022/03/30 23:24:25;;;;;;;4.22;2.03;;;12.90;96.70;;;;;;5081238;28;20043;-81
2022/03/30 23:26:53;;;;;;;3.25;2.13;;;13.00;96.70;;;;;;5101703;28;20040;-80
2022/03/30 23:29:21;;;;;;;5.78;1.73;;;13.00;96.70;;;;;;5094199;28;20039;-79
2022/03/30 23:31:50;;;;;;;2.92;2.72;;;13.00;96.70;;;;;;5086864;28;20056;-80
2022/03/30 23:34:18;;;;;;;2.28;1.30;;;12.90;96.70;;;;;;5120771;28;20039;-80
2022/03/30 23:36:46;;;;;;;2.55;1.42;;;12.90;96.70;;;;;;5105088;28;20492;-80
2022/03/30 23:39:15;;;;;;;2.22;1.75;;;12.90;96.70;;;;;;5108911;28;20047;-80
2022/03/30 23:41:43;;;;;;;2.50;1.60;;;12.90;96.70;;;;;;5092238;28;20048;-80
2022/03/30 23:44:13;;;;;;;2.53;1.70;;;12.90;96.70;;;;;;5090326;28;20126;-80
2022/03/30 23:46:41;;;;;;;2.30;1.38;;;13.00;96.70;;;;;;5109240;28;20044;-77
2022/03/30 23:49:09;;;;;;;2.70;1.63;;;12.90;96.70;;;;;;5105200;28;20085;-76
2022/03/30 23:51:38;;;;;;;3.03;2.10;;;12.90;96.70;;;;;;5089896;28;20513;-76
2022/03/30 23:54:06;;;;;;;2.42;1.60;;;12.90;96.70;;;;;;5089647;28;20044;-76
2022/03/30 23:56:36;;;;;;;2.65;1.50;;;12.90;96.70;;;;;;5090100;28;20170;-76
2022/03/30 23:59:04;;;;;;;3.65;2.40;;;12.90;96.70;;;;;;5081221;28;20297;-77
